logo

United by the hobby
of model aircraft flying

Promoting safe
radio model flying

Sharing the experience
of RC flying

Dedicated to the sport of model aviation

Meeting
Venue

Third Monday Each Month
Crown Point Civic Center
101 S East Street
Crown Point, IN 46307

Read More

email:
[javascript protected email address]

View our events calendar

2019

Weather Conditions

Elev 730 ft    41.19°N  87.16°W

39.0 °F
280°
5 m/h
Wind Variable Wind from West

Current Conditions

Pressure 29.76 in
Visibility 10 miles
Clouds Overcast
Dew Point 33.1 °F
Humidity 79 %
Rainfall 0.04 in
 
METAR KVPZ 182056Z AUTO 28004KT 10SM BKN013 OVC025 04/01 A2976 RMK AO2 SLP084 T00390006 53000

Forecast

INFORMATION PROVIDED BY THE INDIANA STATE FORECAST - NATIONAL WEATHER SERVICE
Sunrise & Sunset
November 18, 2019
6:45 AM

4:28 PM
High 47 | Low 32°F
November 19, 2019
6:46 AM

4:27 PM
High | Low °F
 

our gallery

View All